sensor_id;sensor_type;location;lat;lon;timestamp;P1;durP1;ratioP1;P2;durP2;ratioP2
80637;SDS011;69991;51.760;19.528;2024-03-23T00:54:26;23.50;;;11.30;;
80637;SDS011;69991;51.760;19.528;2024-03-23T00:56:55;18.80;;;10.20;;
80637;SDS011;69991;51.760;19.528;2024-03-23T00:59:23;19.70;;;11.60;;
80637;SDS011;69991;51.760;19.528;2024-03-23T01:04:24;21.00;;;10.80;;
80637;SDS011;69991;51.760;19.528;2024-03-23T01:06:53;22.80;;;11.40;;
80637;SDS011;69991;51.760;19.528;2024-03-23T01:09:22;19.60;;;10.30;;
80637;SDS011;69991;51.760;19.528;2024-03-23T01:11:51;19.60;;;10.60;;
80637;SDS011;69991;51.760;19.528;2024-03-23T01:14:19;21.40;;;10.20;;
80637;SDS011;69991;51.760;19.528;2024-03-23T01:16:48;18.70;;;9.20;;
80637;SDS011;69991;51.760;19.528;2024-03-23T01:19:17;21.80;;;10.90;;
80637;SDS011;69991;51.760;19.528;2024-03-23T01:21:46;19.10;;;9.20;;
80637;SDS011;69991;51.760;19.528;2024-03-23T01:24:15;21.60;;;11.20;;
80637;SDS011;69991;51.760;19.528;2024-03-23T01:26:44;22.40;;;12.10;;
80637;SDS011;69991;51.760;19.528;2024-03-23T01:29:12;21.00;;;10.40;;
80637;SDS011;69991;51.760;19.528;2024-03-23T01:31:41;20.70;;;9.90;;
80637;SDS011;69991;51.760;19.528;2024-03-23T01:34:10;21.70;;;10.30;;
80637;SDS011;69991;51.760;19.528;2024-03-23T01:36:39;19.90;;;10.10;;
80637;SDS011;69991;51.760;19.528;2024-03-23T01:39:08;19.70;;;9.50;;
80637;SDS011;69991;51.760;19.528;2024-03-23T01:41:40;22.30;;;10.20;;
80637;SDS011;69991;51.760;19.528;2024-03-23T01:44:10;22.20;;;10.70;;
80637;SDS011;69991;51.760;19.528;2024-03-23T01:46:39;22.10;;;11.20;;
80637;SDS011;69991;51.760;19.528;2024-03-23T01:49:10;21.80;;;9.90;;
80637;SDS011;69991;51.760;19.528;2024-03-23T01:51:38;19.10;;;9.30;;
80637;SDS011;69991;51.760;19.528;2024-03-23T01:54:08;20.80;;;10.70;;
80637;SDS011;69991;51.760;19.528;2024-03-23T01:56:37;18.80;;;9.20;;
80637;SDS011;69991;51.760;19.528;2024-03-23T01:59:06;19.60;;;9.20;;
80637;SDS011;69991;51.760;19.528;2024-03-23T02:01:35;20.70;;;9.70;;
80637;SDS011;69991;51.760;19.528;2024-03-23T02:04:04;21.70;;;9.90;;
80637;SDS011;69991;51.760;19.528;2024-03-23T02:06:33;20.10;;;9.50;;
80637;SDS011;69991;51.760;19.528;2024-03-23T02:09:02;19.20;;;10.00;;
80637;SDS011;69991;51.760;19.528;2024-03-23T02:11:32;19.40;;;8.50;;
80637;SDS011;69991;51.760;19.528;2024-03-23T02:14:01;17.80;;;8.30;;
80637;SDS011;69991;51.760;19.528;2024-03-23T02:16:30;17.30;;;9.30;;
80637;SDS011;69991;51.760;19.528;2024-03-23T02:18:59;17.90;;;9.20;;
80637;SDS011;69991;51.760;19.528;2024-03-23T02:21:27;19.00;;;9.30;;
80637;SDS011;69991;51.760;19.528;2024-03-23T02:24:00;20.00;;;9.50;;
80637;SDS011;69991;51.760;19.528;2024-03-23T02:26:29;22.30;;;10.30;;
80637;SDS011;69991;51.760;19.528;2024-03-23T02:28:57;19.60;;;9.50;;
80637;SDS011;69991;51.760;19.528;2024-03-23T02:31:26;16.80;;;9.40;;
80637;SDS011;69991;51.760;19.528;2024-03-23T02:33:55;21.40;;;10.50;;
80637;SDS011;69991;51.760;19.528;2024-03-23T02:36:24;20.40;;;9.70;;
80637;SDS011;69991;51.760;19.528;2024-03-23T02:38:52;22.50;;;10.60;;
80637;SDS011;69991;51.760;19.528;2024-03-23T02:41:21;18.80;;;11.10;;
80637;SDS011;69991;51.760;19.528;2024-03-23T02:43:51;19.30;;;10.50;;
80637;SDS011;69991;51.760;19.528;2024-03-23T02:46:20;18.40;;;10.00;;
80637;SDS011;69991;51.760;19.528;2024-03-23T02:48:49;18.30;;;9.50;;
80637;SDS011;69991;51.760;19.528;2024-03-23T02:51:18;20.50;;;10.40;;
80637;SDS011;69991;51.760;19.528;2024-03-23T02:53:47;21.70;;;10.60;;
80637;SDS011;69991;51.760;19.528;2024-03-23T02:56:15;18.50;;;9.60;;
80637;SDS011;69991;51.760;19.528;2024-03-23T02:58:45;20.20;;;9.20;;
80637;SDS011;69991;51.760;19.528;2024-03-23T03:01:13;20.20;;;10.40;;
80637;SDS011;69991;51.760;19.528;2024-03-23T03:03:45;21.10;;;10.90;;
80637;SDS011;69991;51.760;19.528;2024-03-23T03:06:22;18.00;;;9.90;;
80637;SDS011;69991;51.760;19.528;2024-03-23T03:08:52;16.00;;;8.70;;
80637;SDS011;69991;51.760;19.528;2024-03-23T03:11:21;17.60;;;8.60;;
80637;SDS011;69991;51.760;19.528;2024-03-23T03:13:49;17.60;;;9.50;;
80637;SDS011;69991;51.760;19.528;2024-03-23T03:16:18;17.40;;;9.60;;
80637;SDS011;69991;51.760;19.528;2024-03-23T03:18:47;18.20;;;9.90;;
80637;SDS011;69991;51.760;19.528;2024-03-23T03:21:16;19.10;;;9.20;;
80637;SDS011;69991;51.760;19.528;2024-03-23T03:23:45;18.60;;;10.70;;
80637;SDS011;69991;51.760;19.528;2024-03-23T03:26:14;19.20;;;9.70;;
80637;SDS011;69991;51.760;19.528;2024-03-23T03:28:42;18.60;;;9.70;;
80637;SDS011;69991;51.760;19.528;2024-03-23T03:31:17;17.50;;;9.30;;
80637;SDS011;69991;51.760;19.528;2024-03-23T03:33:46;20.20;;;9.80;;
80637;SDS011;69991;51.760;19.528;2024-03-23T03:36:15;19.50;;;9.50;;
80637;SDS011;69991;51.760;19.528;2024-03-23T03:38:44;20.20;;;10.00;;
80637;SDS011;69991;51.760;19.528;2024-03-23T03:41:13;19.70;;;10.00;;
80637;SDS011;69991;51.760;19.528;2024-03-23T03:43:42;21.30;;;10.10;;
80637;SDS011;69991;51.760;19.528;2024-03-23T03:46:11;18.50;;;9.70;;
80637;SDS011;69991;51.760;19.528;2024-03-23T03:48:39;17.90;;;9.50;;
80637;SDS011;69991;51.760;19.528;2024-03-23T03:51:08;17.90;;;9.90;;
80637;SDS011;69991;51.760;19.528;2024-03-23T03:53:37;18.30;;;9.90;;
80637;SDS011;69991;51.760;19.528;2024-03-23T03:56:05;30.40;;;15.40;;
80637;SDS011;69991;51.760;19.528;2024-03-23T03:58:35;19.80;;;10.40;;
80637;SDS011;69991;51.760;19.528;2024-03-23T04:01:04;22.10;;;10.60;;
80637;SDS011;69991;51.760;19.528;2024-03-23T04:03:32;19.00;;;10.10;;
80637;SDS011;69991;51.760;19.528;2024-03-23T04:06:01;21.40;;;10.40;;
80637;SDS011;69991;51.760;19.528;2024-03-23T04:08:31;19.90;;;8.80;;
80637;SDS011;69991;51.760;19.528;2024-03-23T04:11:00;17.10;;;8.60;;
80637;SDS011;69991;51.760;19.528;2024-03-23T04:13:28;18.80;;;9.50;;
80637;SDS011;69991;51.760;19.528;2024-03-23T04:15:57;18.90;;;9.20;;
80637;SDS011;69991;51.760;19.528;2024-03-23T04:18:27;15.20;;;7.50;;
80637;SDS011;69991;51.760;19.528;2024-03-23T04:20:55;18.10;;;9.70;;
80637;SDS011;69991;51.760;19.528;2024-03-23T04:23:24;18.10;;;9.00;;
80637;SDS011;69991;51.760;19.528;2024-03-23T04:25:53;18.30;;;8.50;;
80637;SDS011;69991;51.760;19.528;2024-03-23T04:28:23;18.20;;;9.50;;
80637;SDS011;69991;51.760;19.528;2024-03-23T04:30:51;17.00;;;8.80;;
80637;SDS011;69991;51.760;19.528;2024-03-23T04:33:20;20.00;;;11.30;;
80637;SDS011;69991;51.760;19.528;2024-03-23T04:35:49;23.20;;;11.70;;
80637;SDS011;69991;51.760;19.528;2024-03-23T04:38:18;15.90;;;8.70;;
80637;SDS011;69991;51.760;19.528;2024-03-23T04:40:59;18.00;;;8.90;;
80637;SDS011;69991;51.760;19.528;2024-03-23T04:43:28;17.00;;;8.30;;
80637;SDS011;69991;51.760;19.528;2024-03-23T04:45:57;18.40;;;8.90;;
80637;SDS011;69991;51.760;19.528;2024-03-23T04:48:26;18.30;;;8.90;;
80637;SDS011;69991;51.760;19.528;2024-03-23T04:50:57;18.60;;;9.40;;
80637;SDS011;69991;51.760;19.528;2024-03-23T04:53:26;17.20;;;8.70;;
80637;SDS011;69991;51.760;19.528;2024-03-23T04:55:56;17.00;;;9.10;;
80637;SDS011;69991;51.760;19.528;2024-03-23T04:58:27;17.00;;;8.00;;
80637;SDS011;69991;51.760;19.528;2024-03-23T05:00:56;16.70;;;8.10;;
80637;SDS011;69991;51.760;19.528;2024-03-23T05:03:25;15.60;;;7.90;;
80637;SDS011;69991;51.760;19.528;2024-03-23T05:05:54;15.90;;;7.80;;
80637;SDS011;69991;51.760;19.528;2024-03-23T05:08:23;18.00;;;8.90;;
80637;SDS011;69991;51.760;19.528;2024-03-23T05:10:52;18.00;;;8.00;;
80637;SDS011;69991;51.760;19.528;2024-03-23T05:13:20;17.50;;;8.80;;
80637;SDS011;69991;51.760;19.528;2024-03-23T05:15:55;15.20;;;8.00;;
80637;SDS011;69991;51.760;19.528;2024-03-23T05:18:24;14.90;;;7.60;;
80637;SDS011;69991;51.760;19.528;2024-03-23T05:20:55;14.80;;;7.50;;
80637;SDS011;69991;51.760;19.528;2024-03-23T05:23:26;14.00;;;6.70;;
80637;SDS011;69991;51.760;19.528;2024-03-23T05:25:55;14.80;;;6.80;;
80637;SDS011;69991;51.760;19.528;2024-03-23T05:28:24;13.30;;;7.10;;
80637;SDS011;69991;51.760;19.528;2024-03-23T05:30:53;15.50;;;7.30;;
80637;SDS011;69991;51.760;19.528;2024-03-23T05:33:22;14.10;;;7.10;;
80637;SDS011;69991;51.760;19.528;2024-03-23T05:35:57;15.10;;;6.90;;
80637;SDS011;69991;51.760;19.528;2024-03-23T05:38:27;14.40;;;7.00;;
80637;SDS011;69991;51.760;19.528;2024-03-23T05:40:57;14.60;;;6.60;;
80637;SDS011;69991;51.760;19.528;2024-03-23T05:43:26;14.10;;;6.60;;
80637;SDS011;69991;51.760;19.528;2024-03-23T05:45:57;12.50;;;6.60;;
80637;SDS011;69991;51.760;19.528;2024-03-23T05:48:27;13.60;;;6.60;;
80637;SDS011;69991;51.760;19.528;2024-03-23T05:50:57;15.00;;;7.40;;
80637;SDS011;69991;51.760;19.528;2024-03-23T05:53:26;13.40;;;5.90;;
80637;SDS011;69991;51.760;19.528;2024-03-23T05:56:01;13.50;;;6.40;;
80637;SDS011;69991;51.760;19.528;2024-03-23T05:58:34;13.90;;;6.70;;
80637;SDS011;69991;51.760;19.528;2024-03-23T06:01:03;15.50;;;7.50;;
80637;SDS011;69991;51.760;19.528;2024-03-23T06:03:33;14.20;;;6.90;;
80637;SDS011;69991;51.760;19.528;2024-03-23T06:06:02;13.10;;;6.30;;
80637;SDS011;69991;51.760;19.528;2024-03-23T06:08:30;13.50;;;6.50;;
80637;SDS011;69991;51.760;19.528;2024-03-23T06:10:59;13.70;;;6.30;;
80637;SDS011;69991;51.760;19.528;2024-03-23T06:13:28;13.20;;;5.90;;
80637;SDS011;69991;51.760;19.528;2024-03-23T06:15:58;14.20;;;6.90;;
80637;SDS011;69991;51.760;19.528;2024-03-23T06:18:27;14.30;;;6.90;;
80637;SDS011;69991;51.760;19.528;2024-03-23T06:20:56;13.30;;;6.40;;
80637;SDS011;69991;51.760;19.528;2024-03-23T06:23:26;13.30;;;6.50;;
80637;SDS011;69991;51.760;19.528;2024-03-23T06:25:54;13.00;;;6.90;;
80637;SDS011;69991;51.760;19.528;2024-03-23T06:28:23;14.30;;;6.70;;
80637;SDS011;69991;51.760;19.528;2024-03-23T06:30:52;13.70;;;6.40;;
80637;SDS011;69991;51.760;19.528;2024-03-23T06:33:21;12.70;;;6.70;;
80637;SDS011;69991;51.760;19.528;2024-03-23T06:35:50;14.70;;;7.30;;
80637;SDS011;69991;51.760;19.528;2024-03-23T06:38:20;14.20;;;6.60;;
80637;SDS011;69991;51.760;19.528;2024-03-23T06:40:49;15.40;;;7.40;;
80637;SDS011;69991;51.760;19.528;2024-03-23T06:43:19;13.20;;;6.20;;
80637;SDS011;69991;51.760;19.528;2024-03-23T06:45:54;13.40;;;6.60;;
80637;SDS011;69991;51.760;19.528;2024-03-23T06:48:23;14.10;;;7.00;;
80637;SDS011;69991;51.760;19.528;2024-03-23T06:50:55;11.50;;;6.20;;
80637;SDS011;69991;51.760;19.528;2024-03-23T06:53:25;13.00;;;6.50;;
80637;SDS011;69991;51.760;19.528;2024-03-23T06:55:54;14.60;;;6.20;;
80637;SDS011;69991;51.760;19.528;2024-03-23T06:58:24;13.80;;;6.60;;
80637;SDS011;69991;51.760;19.528;2024-03-23T07:00:53;13.40;;;6.70;;
80637;SDS011;69991;51.760;19.528;2024-03-23T07:03:22;13.20;;;6.40;;
80637;SDS011;69991;51.760;19.528;2024-03-23T07:05:52;14.80;;;6.50;;
80637;SDS011;69991;51.760;19.528;2024-03-23T07:08:21;14.80;;;7.10;;
80637;SDS011;69991;51.760;19.528;2024-03-23T07:10:50;13.30;;;6.50;;
80637;SDS011;69991;51.760;19.528;2024-03-23T07:13:19;13.10;;;7.00;;
80637;SDS011;69991;51.760;19.528;2024-03-23T07:15:52;14.60;;;7.10;;
80637;SDS011;69991;51.760;19.528;2024-03-23T07:18:21;13.80;;;6.40;;
80637;SDS011;69991;51.760;19.528;2024-03-23T07:20:54;12.20;;;6.50;;
80637;SDS011;69991;51.760;19.528;2024-03-23T07:23:23;15.00;;;7.90;;
80637;SDS011;69991;51.760;19.528;2024-03-23T07:25:59;11.80;;;6.70;;
80637;SDS011;69991;51.760;19.528;2024-03-23T07:28:29;13.10;;;6.50;;
80637;SDS011;69991;51.760;19.528;2024-03-23T07:31:04;13.20;;;6.60;;
80637;SDS011;69991;51.760;19.528;2024-03-23T07:33:34;11.00;;;5.50;;
80637;SDS011;69991;51.760;19.528;2024-03-23T07:36:04;12.30;;;6.10;;
80637;SDS011;69991;51.760;19.528;2024-03-23T07:38:34;12.40;;;5.70;;
80637;SDS011;69991;51.760;19.528;2024-03-23T07:41:06;10.70;;;6.10;;
80637;SDS011;69991;51.760;19.528;2024-03-23T07:43:35;12.00;;;5.90;;
80637;SDS011;69991;51.760;19.528;2024-03-23T07:46:05;10.60;;;4.70;;
80637;SDS011;69991;51.760;19.528;2024-03-23T07:48:34;10.30;;;5.10;;
80637;SDS011;69991;51.760;19.528;2024-03-23T07:51:04;10.00;;;5.20;;
80637;SDS011;69991;51.760;19.528;2024-03-23T07:53:53;11.30;;;6.10;;
80637;SDS011;69991;51.760;19.528;2024-03-23T07:56:22;12.00;;;6.50;;
80637;SDS011;69991;51.760;19.528;2024-03-23T07:58:52;11.50;;;5.40;;
80637;SDS011;69991;51.760;19.528;2024-03-23T08:01:20;10.70;;;5.10;;
80637;SDS011;69991;51.760;19.528;2024-03-23T08:03:49;10.20;;;5.00;;
80637;SDS011;69991;51.760;19.528;2024-03-23T08:06:18;10.40;;;5.20;;
80637;SDS011;69991;51.760;19.528;2024-03-23T08:08:50;8.60;;;5.10;;
80637;SDS011;69991;51.760;19.528;2024-03-23T08:11:28;10.40;;;5.30;;
80637;SDS011;69991;51.760;19.528;2024-03-23T08:13:58;11.60;;;5.10;;
80637;SDS011;69991;51.760;19.528;2024-03-23T08:16:27;10.10;;;4.80;;
80637;SDS011;69991;51.760;19.528;2024-03-23T08:18:56;10.40;;;4.60;;
80637;SDS011;69991;51.760;19.528;2024-03-23T08:21:25;10.50;;;5.40;;
80637;SDS011;69991;51.760;19.528;2024-03-23T08:23:55;10.50;;;5.80;;
80637;SDS011;69991;51.760;19.528;2024-03-23T08:26:24;12.50;;;5.90;;
80637;SDS011;69991;51.760;19.528;2024-03-23T08:28:52;9.30;;;4.60;;
80637;SDS011;69991;51.760;19.528;2024-03-23T08:31:21;8.20;;;4.20;;
80637;SDS011;69991;51.760;19.528;2024-03-23T08:33:50;11.20;;;5.30;;
80637;SDS011;69991;51.760;19.528;2024-03-23T08:36:19;9.60;;;4.40;;
80637;SDS011;69991;51.760;19.528;2024-03-23T08:38:48;8.60;;;4.80;;
80637;SDS011;69991;51.760;19.528;2024-03-23T08:41:19;8.60;;;5.00;;
80637;SDS011;69991;51.760;19.528;2024-03-23T08:43:47;7.70;;;4.30;;
80637;SDS011;69991;51.760;19.528;2024-03-23T08:46:16;9.40;;;4.80;;
80637;SDS011;69991;51.760;19.528;2024-03-23T08:48:46;8.60;;;4.70;;
80637;SDS011;69991;51.760;19.528;2024-03-23T08:51:17;7.60;;;4.30;;
80637;SDS011;69991;51.760;19.528;2024-03-23T08:53:46;9.40;;;4.60;;
80637;SDS011;69991;51.760;19.528;2024-03-23T08:56:15;9.50;;;5.10;;
80637;SDS011;69991;51.760;19.528;2024-03-23T08:58:44;9.50;;;4.70;;
80637;SDS011;69991;51.760;19.528;2024-03-23T09:01:13;11.70;;;5.10;;
80637;SDS011;69991;51.760;19.528;2024-03-23T09:03:42;9.10;;;5.10;;
80637;SDS011;69991;51.760;19.528;2024-03-23T09:06:11;10.40;;;5.00;;
80637;SDS011;69991;51.760;19.528;2024-03-23T09:08:41;11.10;;;6.20;;
80637;SDS011;69991;51.760;19.528;2024-03-23T09:11:11;9.50;;;5.00;;
80637;SDS011;69991;51.760;19.528;2024-03-23T09:13:40;11.00;;;5.90;;
80637;SDS011;69991;51.760;19.528;2024-03-23T09:16:10;9.00;;;5.10;;
80637;SDS011;69991;51.760;19.528;2024-03-23T09:18:39;10.50;;;5.80;;
80637;SDS011;69991;51.760;19.528;2024-03-23T09:21:12;9.70;;;4.80;;
80637;SDS011;69991;51.760;19.528;2024-03-23T09:23:43;10.30;;;5.80;;
80637;SDS011;69991;51.760;19.528;2024-03-23T09:26:12;9.50;;;5.50;;
80637;SDS011;69991;51.760;19.528;2024-03-23T09:28:41;11.40;;;5.50;;
80637;SDS011;69991;51.760;19.528;2024-03-23T09:31:10;10.80;;;5.60;;
80637;SDS011;69991;51.760;19.528;2024-03-23T09:33:43;9.40;;;4.70;;
80637;SDS011;69991;51.760;19.528;2024-03-23T09:36:12;10.60;;;5.60;;
80637;SDS011;69991;51.760;19.528;2024-03-23T09:38:40;9.60;;;5.50;;
80637;SDS011;69991;51.760;19.528;2024-03-23T09:41:10;9.20;;;5.00;;
80637;SDS011;69991;51.760;19.528;2024-03-23T09:43:38;9.90;;;5.50;;
80637;SDS011;69991;51.760;19.528;2024-03-23T09:46:07;10.50;;;5.70;;
80637;SDS011;69991;51.760;19.528;2024-03-23T09:48:37;9.20;;;4.80;;
80637;SDS011;69991;51.760;19.528;2024-03-23T09:51:06;9.90;;;5.30;;
80637;SDS011;69991;51.760;19.528;2024-03-23T09:53:37;14.00;;;5.90;;
80637;SDS011;69991;51.760;19.528;2024-03-23T09:56:07;8.90;;;5.20;;
80637;SDS011;69991;51.760;19.528;2024-03-23T09:58:36;9.40;;;5.30;;
80637;SDS011;69991;51.760;19.528;2024-03-23T10:01:05;9.00;;;5.10;;
80637;SDS011;69991;51.760;19.528;2024-03-23T10:03:46;7.40;;;4.00;;
80637;SDS011;69991;51.760;19.528;2024-03-23T10:06:15;8.00;;;4.30;;
80637;SDS011;69991;51.760;19.528;2024-03-23T10:08:51;8.90;;;5.20;;
80637;SDS011;69991;51.760;19.528;2024-03-23T10:11:21;8.90;;;4.50;;
80637;SDS011;69991;51.760;19.528;2024-03-23T10:13:49;9.30;;;4.90;;
80637;SDS011;69991;51.760;19.528;2024-03-23T10:16:22;8.50;;;4.80;;
80637;SDS011;69991;51.760;19.528;2024-03-23T10:18:52;9.60;;;4.90;;
80637;SDS011;69991;51.760;19.528;2024-03-23T10:21:21;10.30;;;5.40;;
80637;SDS011;69991;51.760;19.528;2024-03-23T10:23:50;7.90;;;4.40;;
80637;SDS011;69991;51.760;19.528;2024-03-23T10:26:20;9.20;;;5.00;;
80637;SDS011;69991;51.760;19.528;2024-03-23T10:28:54;9.00;;;4.90;;
80637;SDS011;69991;51.760;19.528;2024-03-23T10:31:35;8.30;;;4.40;;
80637;SDS011;69991;51.760;19.528;2024-03-23T10:34:04;8.70;;;4.70;;
80637;SDS011;69991;51.760;19.528;2024-03-23T10:36:33;9.40;;;5.30;;
80637;SDS011;69991;51.760;19.528;2024-03-23T10:39:02;8.10;;;4.10;;
80637;SDS011;69991;51.760;19.528;2024-03-23T10:41:36;8.60;;;5.00;;
80637;SDS011;69991;51.760;19.528;2024-03-23T10:44:05;8.00;;;4.00;;
80637;SDS011;69991;51.760;19.528;2024-03-23T10:46:35;6.90;;;4.20;;
80637;SDS011;69991;51.760;19.528;2024-03-23T10:49:05;8.50;;;4.80;;
80637;SDS011;69991;51.760;19.528;2024-03-23T10:51:34;9.00;;;4.00;;
80637;SDS011;69991;51.760;19.528;2024-03-23T10:54:06;8.00;;;5.00;;
80637;SDS011;69991;51.760;19.528;2024-03-23T10:56:35;7.40;;;4.40;;
80637;SDS011;69991;51.760;19.528;2024-03-23T10:59:05;7.50;;;3.90;;
80637;SDS011;69991;51.760;19.528;2024-03-23T11:01:35;6.70;;;4.30;;
80637;SDS011;69991;51.760;19.528;2024-03-23T11:04:32;7.50;;;4.00;;
80637;SDS011;69991;51.760;19.528;2024-03-23T11:07:02;9.00;;;5.20;;
80637;SDS011;69991;51.760;19.528;2024-03-23T11:14:47;6.80;;;4.20;;
80637;SDS011;69991;51.760;19.528;2024-03-23T11:19:53;7.90;;;4.70;;
80637;SDS011;69991;51.760;19.528;2024-03-23T11:27:40;7.30;;;4.40;;
80637;SDS011;69991;51.760;19.528;2024-03-23T11:30:11;13.00;;;6.80;;
80637;SDS011;69991;51.760;19.528;2024-03-23T11:32:42;8.90;;;5.40;;
80637;SDS011;69991;51.760;19.528;2024-03-23T11:35:24;9.80;;;4.80;;
80637;SDS011;69991;51.760;19.528;2024-03-23T11:38:01;8.20;;;4.70;;
80637;SDS011;69991;51.760;19.528;2024-03-23T11:40:37;9.40;;;5.10;;
80637;SDS011;69991;51.760;19.528;2024-03-23T11:43:14;8.10;;;5.30;;
80637;SDS011;69991;51.760;19.528;2024-03-23T11:48:15;12.80;;;5.80;;
80637;SDS011;69991;51.760;19.528;2024-03-23T11:50:50;9.00;;;5.40;;
80637;SDS011;69991;51.760;19.528;2024-03-23T11:53:23;11.20;;;6.30;;
80637;SDS011;69991;51.760;19.528;2024-03-23T11:55:59;8.70;;;5.50;;
80637;SDS011;69991;51.760;19.528;2024-03-23T11:58:31;8.60;;;5.40;;
80637;SDS011;69991;51.760;19.528;2024-03-23T12:01:01;8.90;;;5.10;;
80637;SDS011;69991;51.760;19.528;2024-03-23T12:03:31;9.70;;;5.70;;
80637;SDS011;69991;51.760;19.528;2024-03-23T12:06:03;8.20;;;5.40;;
80637;SDS011;69991;51.760;19.528;2024-03-23T12:08:34;10.20;;;5.60;;
80637;SDS011;69991;51.760;19.528;2024-03-23T12:13:40;7.80;;;5.10;;
80637;SDS011;69991;51.760;19.528;2024-03-23T12:16:16;9.40;;;5.50;;
80637;SDS011;69991;51.760;19.528;2024-03-23T12:18:46;8.50;;;5.30;;
80637;SDS011;69991;51.760;19.528;2024-03-23T12:21:16;7.60;;;4.50;;
80637;SDS011;69991;51.760;19.528;2024-03-23T12:23:46;8.50;;;5.40;;
80637;SDS011;69991;51.760;19.528;2024-03-23T12:26:17;12.00;;;5.80;;
80637;SDS011;69991;51.760;19.528;2024-03-23T12:28:46;8.10;;;4.70;;
80637;SDS011;69991;51.760;19.528;2024-03-23T12:31:15;9.30;;;4.80;;
80637;SDS011;69991;51.760;19.528;2024-03-23T12:33:44;8.10;;;5.00;;
80637;SDS011;69991;51.760;19.528;2024-03-23T12:36:13;9.80;;;5.10;;
80637;SDS011;69991;51.760;19.528;2024-03-23T12:38:42;8.40;;;5.00;;
80637;SDS011;69991;51.760;19.528;2024-03-23T12:41:12;8.10;;;4.20;;
80637;SDS011;69991;51.760;19.528;2024-03-23T12:43:41;8.40;;;4.60;;
80637;SDS011;69991;51.760;19.528;2024-03-23T12:46:10;8.80;;;5.00;;
80637;SDS011;69991;51.760;19.528;2024-03-23T12:48:40;8.90;;;5.30;;
80637;SDS011;69991;51.760;19.528;2024-03-23T12:51:11;8.50;;;5.00;;
80637;SDS011;69991;51.760;19.528;2024-03-23T12:53:39;7.50;;;4.70;;
80637;SDS011;69991;51.760;19.528;2024-03-23T12:56:12;7.90;;;5.00;;
80637;SDS011;69991;51.760;19.528;2024-03-23T12:58:45;8.70;;;4.80;;
80637;SDS011;69991;51.760;19.528;2024-03-23T13:01:18;8.00;;;5.10;;
80637;SDS011;69991;51.760;19.528;2024-03-23T13:03:47;8.70;;;5.00;;
80637;SDS011;69991;51.760;19.528;2024-03-23T13:06:17;8.70;;;5.10;;
80637;SDS011;69991;51.760;19.528;2024-03-23T13:08:47;7.70;;;5.30;;
80637;SDS011;69991;51.760;19.528;2024-03-23T13:11:18;9.20;;;4.80;;
80637;SDS011;69991;51.760;19.528;2024-03-23T13:13:47;10.20;;;5.40;;
80637;SDS011;69991;51.760;19.528;2024-03-23T13:16:16;11.80;;;6.30;;
80637;SDS011;69991;51.760;19.528;2024-03-23T13:18:44;9.70;;;5.50;;
80637;SDS011;69991;51.760;19.528;2024-03-23T13:21:13;9.20;;;5.90;;
80637;SDS011;69991;51.760;19.528;2024-03-23T13:23:42;12.00;;;6.70;;
80637;SDS011;69991;51.760;19.528;2024-03-23T13:26:12;10.10;;;6.00;;
80637;SDS011;69991;51.760;19.528;2024-03-23T13:28:44;9.90;;;5.50;;
80637;SDS011;69991;51.760;19.528;2024-03-23T13:31:13;9.70;;;5.50;;
80637;SDS011;69991;51.760;19.528;2024-03-23T13:33:42;10.50;;;5.90;;
80637;SDS011;69991;51.760;19.528;2024-03-23T13:36:12;9.60;;;6.10;;
80637;SDS011;69991;51.760;19.528;2024-03-23T13:38:41;9.30;;;5.90;;
80637;SDS011;69991;51.760;19.528;2024-03-23T13:41:10;10.30;;;6.40;;
80637;SDS011;69991;51.760;19.528;2024-03-23T13:43:41;9.80;;;6.20;;
80637;SDS011;69991;51.760;19.528;2024-03-23T13:46:09;12.70;;;8.10;;
80637;SDS011;69991;51.760;19.528;2024-03-23T13:48:38;16.50;;;9.40;;
80637;SDS011;69991;51.760;19.528;2024-03-23T13:51:07;10.70;;;6.50;;
80637;SDS011;69991;51.760;19.528;2024-03-23T13:53:39;13.20;;;7.10;;
80637;SDS011;69991;51.760;19.528;2024-03-23T13:56:08;10.40;;;5.20;;
80637;SDS011;69991;51.760;19.528;2024-03-23T13:58:36;11.30;;;6.10;;
80637;SDS011;69991;51.760;19.528;2024-03-23T14:01:07;9.30;;;5.50;;
80637;SDS011;69991;51.760;19.528;2024-03-23T14:03:36;10.90;;;6.80;;
80637;SDS011;69991;51.760;19.528;2024-03-23T14:06:05;12.20;;;7.30;;
80637;SDS011;69991;51.760;19.528;2024-03-23T14:08:36;11.40;;;7.40;;
80637;SDS011;69991;51.760;19.528;2024-03-23T14:11:08;10.90;;;7.10;;
80637;SDS011;69991;51.760;19.528;2024-03-23T14:13:37;11.40;;;6.80;;
80637;SDS011;69991;51.760;19.528;2024-03-23T14:16:06;11.50;;;7.30;;
80637;SDS011;69991;51.760;19.528;2024-03-23T14:18:35;10.70;;;7.10;;
80637;SDS011;69991;51.760;19.528;2024-03-23T14:21:04;12.00;;;7.20;;
80637;SDS011;69991;51.760;19.528;2024-03-23T14:23:32;12.00;;;7.20;;
80637;SDS011;69991;51.760;19.528;2024-03-23T14:26:01;11.90;;;7.60;;
80637;SDS011;69991;51.760;19.528;2024-03-23T14:28:30;12.10;;;7.30;;
80637;SDS011;69991;51.760;19.528;2024-03-23T14:30:59;12.00;;;7.60;;
80637;SDS011;69991;51.760;19.528;2024-03-23T14:33:28;14.50;;;8.20;;
80637;SDS011;69991;51.760;19.528;2024-03-23T14:35:57;13.10;;;8.00;;
80637;SDS011;69991;51.760;19.528;2024-03-23T14:38:26;9.80;;;6.30;;
80637;SDS011;69991;51.760;19.528;2024-03-23T14:40:59;9.20;;;5.00;;
80637;SDS011;69991;51.760;19.528;2024-03-23T14:43:29;9.90;;;5.00;;
80637;SDS011;69991;51.760;19.528;2024-03-23T14:48:36;7.10;;;4.70;;
80637;SDS011;69991;51.760;19.528;2024-03-23T14:51:05;9.70;;;4.80;;
80637;SDS011;69991;51.760;19.528;2024-03-23T14:53:37;7.90;;;4.60;;
80637;SDS011;69991;51.760;19.528;2024-03-23T14:56:08;8.10;;;4.80;;
80637;SDS011;69991;51.760;19.528;2024-03-23T14:58:41;12.70;;;7.20;;
80637;SDS011;69991;51.760;19.528;2024-03-23T15:01:10;8.00;;;5.10;;
80637;SDS011;69991;51.760;19.528;2024-03-23T15:03:39;7.50;;;4.40;;
80637;SDS011;69991;51.760;19.528;2024-03-23T15:06:08;9.50;;;4.90;;
80637;SDS011;69991;51.760;19.528;2024-03-23T15:08:38;8.50;;;4.50;;
80637;SDS011;69991;51.760;19.528;2024-03-23T15:11:08;7.80;;;4.50;;
80637;SDS011;69991;51.760;19.528;2024-03-23T15:13:38;7.00;;;3.70;;
80637;SDS011;69991;51.760;19.528;2024-03-23T15:16:07;9.10;;;4.60;;
80637;SDS011;69991;51.760;19.528;2024-03-23T15:18:36;8.30;;;4.80;;
80637;SDS011;69991;51.760;19.528;2024-03-23T15:21:05;8.10;;;4.90;;
80637;SDS011;69991;51.760;19.528;2024-03-23T15:23:35;11.30;;;6.20;;
80637;SDS011;69991;51.760;19.528;2024-03-23T15:26:04;10.70;;;6.10;;
80637;SDS011;69991;51.760;19.528;2024-03-23T15:28:37;9.60;;;5.60;;
80637;SDS011;69991;51.760;19.528;2024-03-23T15:31:29;10.40;;;5.70;;
80637;SDS011;69991;51.760;19.528;2024-03-23T15:33:58;10.50;;;6.10;;
80637;SDS011;69991;51.760;19.528;2024-03-23T15:36:28;10.90;;;7.20;;
80637;SDS011;69991;51.760;19.528;2024-03-23T15:38:56;9.10;;;6.20;;
80637;SDS011;69991;51.760;19.528;2024-03-23T15:41:26;12.60;;;6.80;;
80637;SDS011;69991;51.760;19.528;2024-03-23T15:43:54;10.60;;;6.30;;
80637;SDS011;69991;51.760;19.528;2024-03-23T15:46:23;8.60;;;5.40;;
80637;SDS011;69991;51.760;19.528;2024-03-23T15:48:53;7.20;;;4.10;;
80637;SDS011;69991;51.760;19.528;2024-03-23T15:51:23;9.90;;;6.50;;
80637;SDS011;69991;51.760;19.528;2024-03-23T15:53:52;10.80;;;6.10;;
80637;SDS011;69991;51.760;19.528;2024-03-23T15:56:25;7.80;;;4.80;;